Aeroporto :
LOGIN :

Iscrizione | Disclaimer

   EN    FR    IT 

 










Sommario :    VFR   VFR Marginale   IFR   IFR Intensivo   IFR Molto Intensivo
Visibilità : 
Base nubi : 
>= 8 km
>= 3000ft
5 / 8 km
1000 / 3000 ft
1500m / 5 km
500 / 1000 ft
800 / 1500m
200 / 500 ft
< 800m
< 200 ft
Simboli :   Temporali  Nebbia  Neve Forte  Precipitazioni Forti  Vento > 20 kt
SIGMETs :   Varie  Temporali  Ghiacco  Turbolenza  Onda orograficha  Ceneri Vulcaniche






- Altitudine del aeroporto : 1416 ft
- Codice IATA : ZRH


LSZH - Zurich

ULTIMO METAR :
  • 280350Z 33004KT 9999 FEW015 BKN028 13/12 Q1025 NOSIG

METARs OBSOLETI :
  • 280320Z AUTO 33003KT 9999 BKN013 13/11 Q1025 BECMG BKN016
  • 280250Z AUTO 31005KT 9999 FEW015 SCT017 BKN019 13/11 Q1025 NOSIG
  • 280220Z AUTO VRB03KT 9999 BKN013 13/11 Q1025 NOSIG
  • 280150Z AUTO 29005KT 270V340 9999 FEW041 BKN046 14/11 Q1025 NOSIG
  • 280120Z AUTO 30008KT 9999 FEW012 SCT037 BKN042 14/11 Q1025 RERA TEMPO NSW

TAF TAF LSZH
Valido dal 28 a 03 ore il 29 a 09 ore UTC


280225Z 2803/2909 VRB02KT 9999 FEW040 BKN045 TX18/2814Z TN13/2805Z TN13/2905Z
BECMG 2807/2809 05007KT
BECMG 2817/2820 VRB02KT
PROB40
TEMPO 2819/2824 SHRA SCT040TCU
ATIS : +41 43 816 2295 (DEP) +41 43 816 2294 (ARR)



MetMap, La meteo Aeronautica in un colpo d'occhio ! - Copyright ORBIFLY Dicembre 2007 - Disclaimer

ORBIFLY MET'MAP TEAM :

Programmazione e sviluppo : Alexandra Zaïnal
Concezione : Baudouin d'Aumeries
Aiuto per la programmazione : Marc-Olivier Méhu
Supporto tecnico e logistico : Manuel Goepfert
Aiuto per la traduzione : Arnaldo La Scala

Contatto : metmap@orbifly.com




FONTI E CREDITI :

   NOAA